Time;durP1;ratioP1;P1;durP2;ratioP2;P2;SDS_P1;SDS_P2;PMS_P1;PMS_P2;Temp;Humidity;BMP_temperature;BMP_pressure;BME280_temperature;BME280_humidity;BME280_pressure;Samples;Min_cycle;Max_cycle;Signal;HPM_P1;HPM_P2
2022/12/04 00:00:55;;;;;;;68.65;32.85;;;;;;;;;;5094168;28;20196;-67
2022/12/04 00:03:22;;;;;;;58.13;30.60;;;;;;;;;;5093738;28;20201;-67
2022/12/04 00:05:49;;;;;;;63.70;34.50;;;;;;;;;;5093714;28;20194;-67
2022/12/04 00:08:16;;;;;;;64.05;32.47;;;;;;;;;;5093545;28;20206;-68
2022/12/04 00:10:44;;;;;;;61.97;33.33;;;;;;;;;;5093597;28;20195;-67
2022/12/04 00:13:11;;;;;;;59.50;31.67;;;;;;;;;;5093206;28;20199;-67
2022/12/04 00:15:43;;;;;;;74.47;34.25;;;;;;;;;;5093248;28;20202;-67
2022/12/04 00:18:10;;;;;;;67.50;31.17;;;;;;;;;;5093584;28;20219;-68
2022/12/04 00:20:40;;;;;;;55.72;28.73;;;;;;;;;;5093796;28;20201;-67
2022/12/04 00:23:07;;;;;;;65.10;33.92;;;;;;;;;;5093698;28;20529;-68
2022/12/04 00:25:34;;;;;;;66.03;32.45;;;;;;;;;;5094281;28;20196;-67
2022/12/04 00:28:01;;;;;;;69.75;33.50;;;;;;;;;;5093040;28;20290;-68
2022/12/04 00:30:28;;;;;;;68.00;32.65;;;;;;;;;;5093495;28;20649;-68
2022/12/04 00:32:57;;;;;;;65.78;33.25;;;;;;;;;;5093538;28;20285;-67
2022/12/04 00:35:24;;;;;;;66.88;31.58;;;;;;;;;;5093522;28;20681;-67
2022/12/04 00:37:51;;;;;;;71.97;32.63;;;;;;;;;;5093289;28;20222;-67
2022/12/04 00:40:18;;;;;;;65.57;30.63;;;;;;;;;;5093211;28;20193;-67
2022/12/04 00:42:48;;;;;;;78.03;34.22;;;;;;;;;;5092800;28;20230;-67
2022/12/04 00:45:15;;;;;;;67.10;34.65;;;;;;;;;;5093351;28;20608;-67
2022/12/04 00:47:42;;;;;;;65.22;32.50;;;;;;;;;;5093306;28;20199;-67
2022/12/04 00:50:11;;;;;;;67.90;34.47;;;;;;;;;;5093815;28;20198;-68
2022/12/04 00:52:39;;;;;;;61.47;31.08;;;;;;;;;;5093417;28;20554;-67
2022/12/04 00:55:06;;;;;;;71.40;33.70;;;;;;;;;;5093235;28;20206;-67
2022/12/04 00:57:34;;;;;;;60.17;30.83;;;;;;;;;;5094830;28;20214;-68
2022/12/04 01:00:01;;;;;;;60.95;31.45;;;;;;;;;;5097485;28;20545;-67
2022/12/04 01:02:28;;;;;;;58.08;32.58;;;;;;;;;;5097292;28;20281;-67
2022/12/04 01:04:55;;;;;;;68.78;31.23;;;;;;;;;;5096897;28;20194;-67
2022/12/04 01:07:24;;;;;;;61.78;29.63;;;;;;;;;;5096382;28;20198;-67
2022/12/04 01:09:51;;;;;;;57.65;30.40;;;;;;;;;;5097175;28;20197;-67
2022/12/04 01:12:18;;;;;;;65.63;32.20;;;;;;;;;;5096737;28;20200;-68
2022/12/04 01:14:45;;;;;;;62.63;32.17;;;;;;;;;;5096413;28;20208;-67
2022/12/04 01:17:12;;;;;;;61.38;28.90;;;;;;;;;;5096532;28;20335;-67
2022/12/04 01:19:41;;;;;;;58.72;32.40;;;;;;;;;;5096494;28;20191;-68
2022/12/04 01:22:08;;;;;;;65.82;31.85;;;;;;;;;;5097342;28;20191;-68
2022/12/04 01:24:37;;;;;;;57.00;29.02;;;;;;;;;;5096070;28;20208;-67
2022/12/04 01:27:04;;;;;;;56.88;30.60;;;;;;;;;;5096105;28;20201;-67
2022/12/04 01:29:31;;;;;;;65.65;31.95;;;;;;;;;;5095960;28;20698;-67
2022/12/04 01:31:58;;;;;;;52.70;28.75;;;;;;;;;;5096431;28;20191;-67
2022/12/04 01:34:25;;;;;;;57.75;29.88;;;;;;;;;;5096214;28;20195;-67
2022/12/04 01:36:53;;;;;;;60.95;29.85;;;;;;;;;;5096006;28;20199;-67
2022/12/04 01:39:20;;;;;;;54.17;28.80;;;;;;;;;;5095744;28;20685;-68
2022/12/04 01:41:48;;;;;;;60.05;28.60;;;;;;;;;;5096064;28;20228;-67
2022/12/04 01:44:17;;;;;;;55.85;30.80;;;;;;;;;;5096299;28;20194;-67
2022/12/04 01:46:45;;;;;;;58.33;27.70;;;;;;;;;;5096158;28;20562;-68
2022/12/04 01:49:15;;;;;;;58.05;27.05;;;;;;;;;;5096077;28;20225;-68
2022/12/04 01:51:43;;;;;;;52.72;28.45;;;;;;;;;;5096021;28;20199;-67
2022/12/04 01:54:12;;;;;;;59.28;29.60;;;;;;;;;;5095812;28;20194;-68
2022/12/04 01:56:41;;;;;;;54.00;26.50;;;;;;;;;;5095948;28;20222;-67
2022/12/04 01:59:11;;;;;;;52.78;29.13;;;;;;;;;;5095473;28;20217;-67
2022/12/04 02:01:41;;;;;;;56.95;30.33;;;;;;;;;;5095752;28;20203;-67
2022/12/04 02:04:08;;;;;;;54.53;29.00;;;;;;;;;;5095437;28;20186;-68
2022/12/04 02:06:35;;;;;;;48.72;27.08;;;;;;;;;;5095392;28;20652;-67
2022/12/04 02:09:02;;;;;;;54.88;28.55;;;;;;;;;;5094984;28;20554;-68
2022/12/04 02:11:36;;;;;;;58.30;29.20;;;;;;;;;;5095682;28;20194;-68
2022/12/04 02:14:07;;;;;;;50.15;26.60;;;;;;;;;;5095710;28;20282;-67
2022/12/04 02:16:39;;;;;;;47.72;25.58;;;;;;;;;;5095257;28;20183;-68
2022/12/04 02:19:16;;;;;;;53.13;26.92;;;;;;;;;;5095450;28;20219;-67
2022/12/04 02:21:44;;;;;;;48.58;27.13;;;;;;;;;;5095445;28;20184;-67
2022/12/04 02:24:31;;;;;;;47.58;27.92;;;;;;;;;;5094960;28;20201;-67
2022/12/04 02:27:00;;;;;;;54.13;27.10;;;;;;;;;;5095019;28;20184;-67
2022/12/04 02:29:33;;;;;;;50.85;26.50;;;;;;;;;;5095430;28;20573;-67
2022/12/04 02:32:04;;;;;;;60.50;29.85;;;;;;;;;;5095333;28;20187;-67
2022/12/04 02:34:35;;;;;;;54.45;26.50;;;;;;;;;;5095048;28;20199;-66
2022/12/04 02:37:05;;;;;;;51.85;24.98;;;;;;;;;;5095201;28;20194;-67
2022/12/04 02:39:36;;;;;;;47.15;26.15;;;;;;;;;;5095017;28;20228;-67
2022/12/04 02:42:05;;;;;;;55.80;27.02;;;;;;;;;;5095020;28;20230;-67
2022/12/04 02:44:36;;;;;;;48.75;25.75;;;;;;;;;;5094631;28;20192;-67
2022/12/04 02:47:05;;;;;;;51.90;25.95;;;;;;;;;;5095042;28;20640;-68
2022/12/04 02:49:34;;;;;;;49.17;25.13;;;;;;;;;;5094544;28;20239;-67
2022/12/04 02:52:02;;;;;;;52.45;25.63;;;;;;;;;;5094463;28;20189;-67
2022/12/04 02:54:32;;;;;;;43.70;22.80;;;;;;;;;;5094931;28;20216;-67
2022/12/04 02:57:00;;;;;;;42.70;24.25;;;;;;;;;;5095041;28;20186;-67
2022/12/04 02:59:29;;;;;;;41.10;24.77;;;;;;;;;;5094406;28;20683;-67
2022/12/04 03:02:00;;;;;;;43.50;23.92;;;;;;;;;;5094844;28;20206;-67
2022/12/04 03:04:30;;;;;;;41.90;22.95;;;;;;;;;;5094740;28;20547;-67
2022/12/04 03:06:59;;;;;;;46.03;23.05;;;;;;;;;;5094657;28;20203;-67
2022/12/04 03:09:29;;;;;;;45.05;23.30;;;;;;;;;;5094494;28;20195;-67
2022/12/04 03:11:58;;;;;;;46.63;22.70;;;;;;;;;;5094031;28;20238;-67
2022/12/04 03:14:28;;;;;;;49.83;24.77;;;;;;;;;;5094497;28;20220;-67
2022/12/04 03:16:59;;;;;;;47.08;23.73;;;;;;;;;;5094139;28;20178;-67
2022/12/04 03:19:29;;;;;;;43.35;25.50;;;;;;;;;;5093887;28;20211;-66
2022/12/04 03:21:57;;;;;;;52.22;24.10;;;;;;;;;;5093578;28;20200;-67
2022/12/04 03:24:26;;;;;;;47.35;24.45;;;;;;;;;;5094441;28;20194;-66
2022/12/04 03:26:56;;;;;;;51.60;26.77;;;;;;;;;;5094246;28;20283;-66
2022/12/04 03:29:28;;;;;;;42.55;23.65;;;;;;;;;;5094111;28;20552;-67
2022/12/04 03:31:59;;;;;;;58.97;27.77;;;;;;;;;;5093851;28;20187;-67
2022/12/04 03:34:32;;;;;;;55.17;27.45;;;;;;;;;;5093757;28;20197;-67
2022/12/04 03:37:02;;;;;;;42.97;23.88;;;;;;;;;;5093942;28;20185;-67
2022/12/04 03:39:34;;;;;;;49.08;24.23;;;;;;;;;;5093576;28;20229;-68
2022/12/04 03:42:03;;;;;;;47.45;24.38;;;;;;;;;;5094145;28;20221;-67
2022/12/04 03:44:36;;;;;;;49.67;26.08;;;;;;;;;;5093922;28;20730;-67
2022/12/04 03:47:05;;;;;;;47.38;25.17;;;;;;;;;;5094547;28;20197;-67
2022/12/04 03:49:37;;;;;;;52.22;28.02;;;;;;;;;;5093457;28;20205;-68
2022/12/04 03:52:08;;;;;;;57.92;26.25;;;;;;;;;;5094192;28;20274;-67
2022/12/04 03:54:38;;;;;;;50.55;27.42;;;;;;;;;;5094167;28;20313;-67
2022/12/04 03:57:07;;;;;;;50.50;27.10;;;;;;;;;;5094024;28;20200;-67
2022/12/04 03:59:38;;;;;;;49.60;24.00;;;;;;;;;;5093186;28;20218;-67
2022/12/04 04:02:06;;;;;;;54.50;27.10;;;;;;;;;;5094175;28;20569;-67
2022/12/04 04:04:35;;;;;;;53.10;27.05;;;;;;;;;;5093263;28;20191;-68
2022/12/04 04:07:04;;;;;;;49.45;25.75;;;;;;;;;;5093299;28;20198;-67
2022/12/04 04:09:34;;;;;;;47.83;25.45;;;;;;;;;;5093605;28;20204;-67
2022/12/04 04:12:04;;;;;;;56.75;27.55;;;;;;;;;;5093829;28;20548;-67
2022/12/04 04:25:37;;;;;;;54.35;26.80;;;;;;;;;;5093394;28;20314;-67
2022/12/04 04:28:04;;;;;;;55.13;25.65;;;;;;;;;;5093231;28;20190;-66
2022/12/04 04:30:32;;;;;;;50.15;24.92;;;;;;;;;;5093551;28;20222;-67
2022/12/04 04:33:01;;;;;;;51.90;26.98;;;;;;;;;;5096344;28;20198;-67
2022/12/04 04:35:33;;;;;;;58.90;28.13;;;;;;;;;;5097536;28;20303;-67
2022/12/04 04:38:07;;;;;;;54.55;27.02;;;;;;;;;;5097895;28;20190;-68
2022/12/04 04:40:37;;;;;;;57.65;26.58;;;;;;;;;;5097661;28;20192;-67
2022/12/04 04:43:06;;;;;;;51.03;25.45;;;;;;;;;;5097753;28;20679;-67
2022/12/04 04:45:36;;;;;;;50.42;27.02;;;;;;;;;;5096989;28;20653;-66
2022/12/04 04:48:04;;;;;;;51.72;25.67;;;;;;;;;;5094127;28;20604;-67
2022/12/04 04:50:33;;;;;;;51.92;25.58;;;;;;;;;;5075836;28;20222;-67
2022/12/04 04:53:03;;;;;;;60.45;27.75;;;;;;;;;;5075979;28;20194;-67
2022/12/04 04:55:33;;;;;;;57.20;28.40;;;;;;;;;;5075945;28;20206;-67
2022/12/04 04:58:06;;;;;;;48.17;25.13;;;;;;;;;;5075879;28;20624;-67
2022/12/04 05:00:33;;;;;;;58.53;27.10;;;;;;;;;;5076063;28;20217;-67
2022/12/04 05:03:00;;;;;;;46.10;25.50;;;;;;;;;;5076049;28;20202;-67
2022/12/04 05:05:27;;;;;;;52.53;26.23;;;;;;;;;;5075946;28;20202;-67
2022/12/04 05:07:56;;;;;;;49.90;25.98;;;;;;;;;;5075636;28;20198;-67
2022/12/04 05:10:23;;;;;;;53.53;26.35;;;;;;;;;;5075959;28;20210;-68
2022/12/04 05:12:50;;;;;;;49.75;24.75;;;;;;;;;;5075795;28;20191;-67
2022/12/04 05:15:18;;;;;;;59.13;25.67;;;;;;;;;;5075485;28;20195;-67
2022/12/04 05:17:45;;;;;;;53.58;25.58;;;;;;;;;;5076152;28;20314;-67
2022/12/04 05:20:13;;;;;;;43.20;23.13;;;;;;;;;;5095899;28;20220;-67
2022/12/04 05:22:40;;;;;;;44.45;25.45;;;;;;;;;;5095837;28;20629;-67
2022/12/04 05:25:09;;;;;;;55.63;24.75;;;;;;;;;;5096053;28;20200;-67
2022/12/04 05:27:36;;;;;;;43.40;23.58;;;;;;;;;;5095764;28;20286;-67
2022/12/04 05:30:04;;;;;;;48.15;21.00;;;;;;;;;;5095812;28;20202;-67
2022/12/04 05:32:31;;;;;;;59.67;23.77;;;;;;;;;;5095744;28;20195;-68
2022/12/04 05:34:59;;;;;;;50.60;23.10;;;;;;;;;;5095978;28;20195;-67
2022/12/04 05:37:26;;;;;;;45.45;23.83;;;;;;;;;;5096282;28;20190;-67
2022/12/04 05:39:54;;;;;;;43.55;21.85;;;;;;;;;;5095706;28;20216;-67
2022/12/04 05:42:22;;;;;;;47.08;22.67;;;;;;;;;;5095449;28;20226;-67
2022/12/04 05:44:50;;;;;;;45.33;21.45;;;;;;;;;;5095296;28;20568;-67
2022/12/04 05:47:17;;;;;;;54.63;24.35;;;;;;;;;;5095564;28;20201;-67
2022/12/04 05:49:44;;;;;;;47.63;22.27;;;;;;;;;;5095505;28;20203;-67
2022/12/04 05:52:11;;;;;;;45.78;21.85;;;;;;;;;;5094979;28;20301;-67
2022/12/04 05:54:39;;;;;;;39.35;21.10;;;;;;;;;;5095530;28;20593;-67
2022/12/04 05:57:06;;;;;;;49.15;22.33;;;;;;;;;;5095874;28;20199;-67
2022/12/04 05:59:35;;;;;;;44.75;20.13;;;;;;;;;;5095690;28;20707;-67
2022/12/04 06:02:02;;;;;;;47.63;21.38;;;;;;;;;;5095532;28;20195;-67
2022/12/04 06:04:29;;;;;;;41.50;20.77;;;;;;;;;;5095306;28;20208;-66
2022/12/04 06:06:56;;;;;;;40.00;20.33;;;;;;;;;;5095540;28;20271;-67
2022/12/04 06:09:23;;;;;;;35.78;19.30;;;;;;;;;;5095254;28;20201;-67
2022/12/04 06:11:51;;;;;;;39.00;19.23;;;;;;;;;;5095094;28;20195;-67
2022/12/04 06:14:18;;;;;;;42.00;19.80;;;;;;;;;;5095327;28;20199;-67
2022/12/04 06:16:47;;;;;;;39.03;20.83;;;;;;;;;;5095320;28;20199;-67
2022/12/04 06:19:15;;;;;;;48.55;20.20;;;;;;;;;;5095413;28;20633;-67
2022/12/04 06:21:43;;;;;;;41.33;20.52;;;;;;;;;;5094915;28;20200;-67
2022/12/04 06:24:13;;;;;;;37.13;19.70;;;;;;;;;;5095140;28;20236;-67
2022/12/04 06:26:40;;;;;;;38.15;18.58;;;;;;;;;;5094833;28;20202;-67
2022/12/04 06:29:07;;;;;;;37.25;19.40;;;;;;;;;;5094923;28;20204;-67
2022/12/04 06:31:36;;;;;;;38.90;20.67;;;;;;;;;;5094525;28;20686;-67
2022/12/04 06:34:06;;;;;;;43.22;21.02;;;;;;;;;;5094570;28;20293;-67
2022/12/04 06:36:33;;;;;;;41.53;18.77;;;;;;;;;;5094806;28;20191;-66
2022/12/04 06:39:00;;;;;;;28.13;17.48;;;;;;;;;;5094489;28;20204;-67
2022/12/04 06:41:28;;;;;;;32.25;18.58;;;;;;;;;;5094931;28;20688;-65
2022/12/04 06:43:55;;;;;;;33.20;17.10;;;;;;;;;;5094416;28;20192;-68
2022/12/04 06:46:23;;;;;;;36.42;19.35;;;;;;;;;;5094842;28;20198;-68
2022/12/04 06:48:50;;;;;;;36.35;16.45;;;;;;;;;;5094080;28;20694;-68
2022/12/04 06:51:20;;;;;;;38.67;18.63;;;;;;;;;;5094073;28;20203;-68
2022/12/04 06:53:48;;;;;;;29.85;18.23;;;;;;;;;;5094384;28;20198;-68
2022/12/04 06:56:18;;;;;;;34.08;18.40;;;;;;;;;;5094421;28;20198;-68
2022/12/04 06:58:45;;;;;;;33.08;17.40;;;;;;;;;;5094647;28;20179;-69
2022/12/04 07:01:14;;;;;;;29.52;15.85;;;;;;;;;;5094324;28;20279;-68
2022/12/04 07:03:41;;;;;;;38.95;17.15;;;;;;;;;;5093907;28;20641;-68
2022/12/04 07:06:16;;;;;;;36.50;19.33;;;;;;;;;;5094464;28;20575;-68
2022/12/04 07:08:45;;;;;;;29.48;16.27;;;;;;;;;;5085601;28;20620;-67
2022/12/04 07:11:12;;;;;;;28.55;16.73;;;;;;;;;;5074207;28;20196;-68
2022/12/04 07:13:39;;;;;;;32.58;17.45;;;;;;;;;;5074120;28;20563;-68
2022/12/04 07:16:08;;;;;;;32.42;16.50;;;;;;;;;;5074224;28;20196;-68
2022/12/04 07:18:36;;;;;;;29.10;16.98;;;;;;;;;;5073612;28;20215;-68
2022/12/04 07:21:05;;;;;;;29.38;15.35;;;;;;;;;;5073931;28;20223;-68
2022/12/04 07:23:33;;;;;;;33.03;17.33;;;;;;;;;;5074117;28;20208;-68
2022/12/04 07:26:05;;;;;;;27.58;15.60;;;;;;;;;;5073943;28;20196;-68
2022/12/04 07:28:32;;;;;;;32.42;18.90;;;;;;;;;;5073916;28;20217;-68
2022/12/04 07:31:00;;;;;;;32.40;16.15;;;;;;;;;;5073741;28;20653;-68
2022/12/04 07:33:27;;;;;;;28.52;15.65;;;;;;;;;;5073964;28;20195;-68
2022/12/04 07:35:57;;;;;;;29.92;16.02;;;;;;;;;;5073482;28;20197;-68
2022/12/04 07:38:24;;;;;;;33.03;15.90;;;;;;;;;;5073265;28;20196;-68
2022/12/04 07:40:51;;;;;;;26.42;15.07;;;;;;;;;;5073197;28;20229;-68
2022/12/04 07:43:20;;;;;;;30.52;14.48;;;;;;;;;;5073634;28;20234;-67
2022/12/04 07:45:47;;;;;;;29.00;16.35;;;;;;;;;;5073591;28;20285;-67
2022/12/04 07:48:14;;;;;;;22.50;14.38;;;;;;;;;;5073523;28;20196;-69
2022/12/04 07:50:41;;;;;;;28.52;16.10;;;;;;;;;;5073486;28;20196;-68
2022/12/04 07:53:09;;;;;;;30.20;15.25;;;;;;;;;;5073477;28;20196;-67
2022/12/04 07:55:36;;;;;;;29.00;14.75;;;;;;;;;;5073914;28;20200;-68
2022/12/04 07:58:03;;;;;;;28.02;16.25;;;;;;;;;;5073078;28;20199;-68
2022/12/04 08:00:32;;;;;;;30.65;16.40;;;;;;;;;;5073384;28;20223;-68
2022/12/04 08:02:59;;;;;;;27.80;15.23;;;;;;;;;;5072088;28;20192;-67
2022/12/04 08:05:26;;;;;;;27.77;14.15;;;;;;;;;;5072539;28;20670;-68
2022/12/04 08:07:54;;;;;;;25.83;15.00;;;;;;;;;;5072235;28;20552;-68
2022/12/04 08:10:21;;;;;;;32.83;15.07;;;;;;;;;;5073063;28;20227;-68
2022/12/04 08:12:48;;;;;;;25.52;13.20;;;;;;;;;;5073224;28;20195;-68
2022/12/04 08:15:15;;;;;;;31.75;16.83;;;;;;;;;;5073186;28;20296;-68
2022/12/04 08:17:44;;;;;;;27.33;14.40;;;;;;;;;;5072906;28;20191;-68
2022/12/04 08:20:11;;;;;;;21.23;13.45;;;;;;;;;;5072981;28;20282;-68
2022/12/04 08:22:38;;;;;;;24.83;13.65;;;;;;;;;;5072925;28;20285;-67
2022/12/04 08:25:06;;;;;;;28.85;15.68;;;;;;;;;;5072335;28;20200;-68
2022/12/04 08:27:34;;;;;;;25.98;14.63;;;;;;;;;;5072530;28;20203;-67
2022/12/04 08:30:01;;;;;;;27.00;14.07;;;;;;;;;;5072796;28;20199;-68
2022/12/04 08:32:28;;;;;;;25.73;14.60;;;;;;;;;;5074510;28;20210;-68
2022/12/04 08:34:57;;;;;;;26.67;13.57;;;;;;;;;;5093100;28;20281;-68
2022/12/04 08:37:26;;;;;;;22.48;13.35;;;;;;;;;;5093720;28;20206;-67
2022/12/04 08:39:53;;;;;;;27.02;16.17;;;;;;;;;;5093092;28;20309;-67
2022/12/04 08:42:20;;;;;;;20.88;14.20;;;;;;;;;;5092874;28;20227;-68
2022/12/04 08:44:47;;;;;;;36.35;17.10;;;;;;;;;;5092596;28;20645;-68
2022/12/04 08:47:15;;;;;;;28.23;15.15;;;;;;;;;;5092454;28;20676;-68
2022/12/04 08:49:42;;;;;;;32.15;14.55;;;;;;;;;;5092658;28;20237;-68
2022/12/04 08:52:11;;;;;;;32.80;18.65;;;;;;;;;;5093085;28;20201;-68
2022/12/04 08:54:38;;;;;;;25.95;14.40;;;;;;;;;;5092893;28;20196;-68
2022/12/04 08:57:06;;;;;;;24.17;14.00;;;;;;;;;;5093204;28;20302;-67
2022/12/04 08:59:33;;;;;;;22.55;12.60;;;;;;;;;;5092893;28;20200;-68
2022/12/04 09:02:00;;;;;;;25.60;14.55;;;;;;;;;;5092630;28;20643;-66
2022/12/04 09:04:27;;;;;;;22.08;13.57;;;;;;;;;;5092246;28;20198;-67
2022/12/04 09:06:54;;;;;;;20.10;13.18;;;;;;;;;;5092451;28;20191;-67
2022/12/04 09:09:23;;;;;;;24.48;14.68;;;;;;;;;;5092706;28;20253;-70
2022/12/04 09:11:50;;;;;;;25.73;15.15;;;;;;;;;;5092971;28;20199;-70
2022/12/04 09:14:24;;;;;;;23.73;14.45;;;;;;;;;;5092724;28;20194;-69
2022/12/04 09:16:51;;;;;;;21.30;13.80;;;;;;;;;;5092626;28;20198;-69
2022/12/04 09:19:19;;;;;;;21.10;12.77;;;;;;;;;;5079969;28;20195;-69
2022/12/04 09:21:46;;;;;;;33.50;13.88;;;;;;;;;;5096022;28;20493;-69
2022/12/04 09:24:13;;;;;;;24.27;14.23;;;;;;;;;;5080822;28;20303;-69
2022/12/04 09:26:42;;;;;;;21.30;14.23;;;;;;;;;;5075297;28;20199;-68
2022/12/04 09:29:11;;;;;;;21.27;11.88;;;;;;;;;;5075493;28;20208;-69
2022/12/04 09:31:38;;;;;;;21.63;14.45;;;;;;;;;;5076345;28;20572;-69
2022/12/04 09:34:06;;;;;;;25.70;15.30;;;;;;;;;;5075960;28;20196;-69
2022/12/04 09:36:33;;;;;;;21.83;12.75;;;;;;;;;;5075899;28;20375;-68
2022/12/04 09:39:00;;;;;;;24.10;14.95;;;;;;;;;;5075888;28;20643;-69
2022/12/04 09:41:33;;;;;;;24.10;13.90;;;;;;;;;;5075428;28;20681;-69
2022/12/04 09:44:03;;;;;;;21.23;13.23;;;;;;;;;;5075491;28;20184;-68
2022/12/04 09:46:35;;;;;;;24.25;14.00;;;;;;;;;;5075335;28;20197;-69
2022/12/04 09:49:03;;;;;;;26.80;13.57;;;;;;;;;;5075283;28;20188;-69
2022/12/04 09:51:31;;;;;;;23.77;13.75;;;;;;;;;;5075626;28;20236;-69
2022/12/04 09:54:01;;;;;;;33.05;14.85;;;;;;;;;;5087584;28;20195;-69
2022/12/04 09:56:30;;;;;;;22.25;13.70;;;;;;;;;;5095523;28;20193;-69
2022/12/04 09:58:59;;;;;;;22.65;13.25;;;;;;;;;;5095747;28;20282;-69
2022/12/04 10:01:29;;;;;;;22.70;14.63;;;;;;;;;;5095509;28;20317;-69
2022/12/04 10:03:56;;;;;;;23.05;14.93;;;;;;;;;;5095128;28;20192;-69
2022/12/04 10:06:25;;;;;;;25.45;13.75;;;;;;;;;;5095093;28;20203;-69
2022/12/04 10:08:55;;;;;;;25.30;14.82;;;;;;;;;;5095115;28;20210;-69
2022/12/04 10:11:28;;;;;;;25.00;13.60;;;;;;;;;;5095421;28;20201;-67
2022/12/04 10:14:03;;;;;;;25.77;14.82;;;;;;;;;;5095922;28;20636;-68
2022/12/04 10:16:39;;;;;;;23.35;14.60;;;;;;;;;;5095048;28;20286;-68
2022/12/04 10:19:11;;;;;;;25.83;14.85;;;;;;;;;;5095088;28;20290;-68
2022/12/04 10:21:43;;;;;;;23.95;14.13;;;;;;;;;;5095331;28;20299;-69
2022/12/04 10:24:26;;;;;;;21.80;14.30;;;;;;;;;;5094933;28;20195;-68
2022/12/04 10:26:55;;;;;;;19.75;13.65;;;;;;;;;;5094761;28;20185;-68
2022/12/04 10:29:24;;;;;;;25.65;13.90;;;;;;;;;;5094005;28;20194;-68
2022/12/04 10:31:55;;;;;;;25.80;14.25;;;;;;;;;;5095147;28;20200;-68
2022/12/04 10:34:24;;;;;;;24.15;15.60;;;;;;;;;;5095314;28;20506;-68
2022/12/04 10:36:52;;;;;;;25.73;17.60;;;;;;;;;;5094921;28;20200;-68
2022/12/04 10:39:23;;;;;;;27.10;14.70;;;;;;;;;;5094887;28;20602;-69
2022/12/04 10:41:53;;;;;;;24.50;14.95;;;;;;;;;;5095037;28;20682;-69
2022/12/04 10:44:21;;;;;;;22.38;15.18;;;;;;;;;;5095301;28;20291;-68
2022/12/04 10:46:48;;;;;;;29.35;16.33;;;;;;;;;;5094975;28;20193;-69
2022/12/04 10:49:20;;;;;;;22.40;13.65;;;;;;;;;;5094481;28;20197;-69
2022/12/04 10:51:48;;;;;;;23.13;14.02;;;;;;;;;;5094853;28;20190;-68
2022/12/04 10:54:20;;;;;;;24.15;15.52;;;;;;;;;;5094657;28;20575;-69
2022/12/04 10:56:54;;;;;;;22.92;13.45;;;;;;;;;;5094903;28;20254;-69
2022/12/04 10:59:22;;;;;;;23.98;14.70;;;;;;;;;;5094766;28;20195;-68
2022/12/04 11:01:49;;;;;;;24.08;15.63;;;;;;;;;;5094471;28;20227;-69
2022/12/04 11:04:23;;;;;;;24.05;16.42;;;;;;;;;;5094266;28;20191;-69
2022/12/04 11:06:52;;;;;;;24.45;15.48;;;;;;;;;;5094189;28;20187;-68
2022/12/04 11:09:22;;;;;;;24.70;16.45;;;;;;;;;;5094496;28;20193;-68
2022/12/04 11:11:49;;;;;;;24.90;14.95;;;;;;;;;;5094766;28;20220;-68
2022/12/04 11:14:17;;;;;;;24.88;15.52;;;;;;;;;;5094420;28;20674;-68
2022/12/04 11:16:47;;;;;;;31.77;17.15;;;;;;;;;;5094336;28;20687;-68
2022/12/04 11:19:22;;;;;;;26.27;14.65;;;;;;;;;;5094450;28;20193;-68
2022/12/04 11:21:50;;;;;;;24.45;14.98;;;;;;;;;;5093840;28;20794;-68
2022/12/04 11:24:20;;;;;;;23.90;14.13;;;;;;;;;;5094309;28;20284;-69
2022/12/04 11:26:47;;;;;;;25.90;16.13;;;;;;;;;;5094410;28;20275;-69
2022/12/04 11:29:16;;;;;;;25.77;15.98;;;;;;;;;;5093615;28;20195;-69
2022/12/04 11:31:47;;;;;;;28.10;16.25;;;;;;;;;;5094050;28;20591;-68
2022/12/04 11:34:17;;;;;;;26.80;16.27;;;;;;;;;;5072686;28;20243;-68
2022/12/04 11:36:49;;;;;;;29.25;15.60;;;;;;;;;;5073439;28;20220;-68
2022/12/04 11:39:18;;;;;;;25.77;15.90;;;;;;;;;;5073238;28;20207;-68
2022/12/04 11:41:46;;;;;;;27.65;16.15;;;;;;;;;;5072389;28;20251;-68
2022/12/04 11:44:24;;;;;;;28.90;17.15;;;;;;;;;;5086650;28;20236;-67
2022/12/04 11:46:53;;;;;;;36.30;18.23;;;;;;;;;;5093798;28;20274;-68
2022/12/04 11:49:22;;;;;;;23.65;15.75;;;;;;;;;;5093659;28;20200;-68
2022/12/04 11:51:54;;;;;;;27.35;16.20;;;;;;;;;;5093668;28;20209;-69
2022/12/04 11:54:28;;;;;;;30.35;18.55;;;;;;;;;;5092869;28;20190;-68
2022/12/04 11:57:00;;;;;;;26.88;16.83;;;;;;;;;;5093120;28;20578;-68
2022/12/04 11:59:42;;;;;;;27.40;15.77;;;;;;;;;;5093443;28;20181;-69
2022/12/04 12:02:20;;;;;;;28.70;15.65;;;;;;;;;;5093533;28;20233;-68
2022/12/04 12:04:59;;;;;;;31.27;18.48;;;;;;;;;;5093179;28;20184;-68
2022/12/04 12:07:37;;;;;;;24.40;16.35;;;;;;;;;;5093938;28;20613;-68
2022/12/04 12:10:06;;;;;;;29.20;17.88;;;;;;;;;;5093734;28;20625;-68
2022/12/04 12:12:40;;;;;;;32.60;18.90;;;;;;;;;;5092523;28;20628;-68
2022/12/04 12:15:16;;;;;;;36.50;19.30;;;;;;;;;;5093133;28;20275;-69
2022/12/04 12:17:45;;;;;;;33.47;19.75;;;;;;;;;;5093020;28;20197;-68
2022/12/04 12:20:17;;;;;;;31.77;20.90;;;;;;;;;;5092983;28;20234;-68
2022/12/04 12:22:55;;;;;;;27.35;17.95;;;;;;;;;;5093040;28;20222;-68
2022/12/04 12:25:27;;;;;;;32.15;19.48;;;;;;;;;;5093358;28;20279;-68
2022/12/04 12:28:02;;;;;;;34.28;19.08;;;;;;;;;;5093361;28;20520;-68
2022/12/04 12:30:33;;;;;;;27.38;16.42;;;;;;;;;;5093008;28;20184;-68
2022/12/04 12:33:08;;;;;;;31.13;19.10;;;;;;;;;;5092917;28;20199;-68
2022/12/04 12:35:38;;;;;;;33.50;17.52;;;;;;;;;;5092583;28;20282;-68
2022/12/04 12:38:08;;;;;;;34.78;21.83;;;;;;;;;;5092905;28;20183;-69
2022/12/04 12:40:37;;;;;;;33.38;19.25;;;;;;;;;;5092948;28;20227;-68
2022/12/04 12:43:07;;;;;;;35.53;18.50;;;;;;;;;;5092597;28;20230;-68
2022/12/04 12:45:40;;;;;;;34.22;17.08;;;;;;;;;;5092859;28;20197;-68
2022/12/04 12:48:11;;;;;;;33.88;18.40;;;;;;;;;;5092813;28;20189;-68
2022/12/04 12:50:43;;;;;;;32.50;19.60;;;;;;;;;;5093179;28;20567;-68
2022/12/04 12:53:13;;;;;;;29.52;17.60;;;;;;;;;;5094555;28;20183;-68
2022/12/04 12:55:43;;;;;;;32.53;19.00;;;;;;;;;;5096794;28;20216;-68
2022/12/04 12:58:13;;;;;;;30.60;18.75;;;;;;;;;;5096555;28;20283;-68
2022/12/04 13:00:44;;;;;;;32.80;20.92;;;;;;;;;;5096707;28;20564;-68
2022/12/04 13:03:21;;;;;;;32.67;18.20;;;;;;;;;;5096537;28;20275;-68
2022/12/04 13:05:51;;;;;;;33.45;18.70;;;;;;;;;;5096885;28;20267;-68
2022/12/04 13:08:23;;;;;;;33.90;18.60;;;;;;;;;;5096668;28;20198;-67
2022/12/04 13:10:54;;;;;;;35.15;19.40;;;;;;;;;;5096429;28;20203;-66
2022/12/04 13:13:25;;;;;;;33.47;19.27;;;;;;;;;;5096405;28;20200;-68
2022/12/04 13:15:54;;;;;;;36.70;21.77;;;;;;;;;;5096181;28;20625;-68
2022/12/04 13:18:24;;;;;;;42.20;19.45;;;;;;;;;;5096060;28;20200;-67
2022/12/04 13:20:53;;;;;;;42.00;23.67;;;;;;;;;;5096305;28;20199;-68
2022/12/04 13:23:27;;;;;;;39.20;21.33;;;;;;;;;;5096098;28;20192;-68
2022/12/04 13:25:59;;;;;;;44.72;25.10;;;;;;;;;;5096574;28;20190;-67
2022/12/04 13:28:35;;;;;;;46.25;24.08;;;;;;;;;;5096257;28;20620;-67
2022/12/04 13:31:06;;;;;;;38.85;22.70;;;;;;;;;;5096841;28;20204;-67
2022/12/04 13:33:51;;;;;;;45.72;24.17;;;;;;;;;;5095860;28;20191;-68
2022/12/04 13:36:28;;;;;;;39.38;23.30;;;;;;;;;;5096631;28;20584;-68
2022/12/04 13:39:04;;;;;;;46.17;25.58;;;;;;;;;;5095786;28;20184;-68
2022/12/04 13:41:33;;;;;;;42.55;23.13;;;;;;;;;;5096224;28;21142;-68
2022/12/04 13:44:01;;;;;;;43.60;24.35;;;;;;;;;;5096423;28;20609;-68
2022/12/04 13:46:33;;;;;;;44.00;23.95;;;;;;;;;;5096075;28;20202;-67
2022/12/04 13:49:12;;;;;;;52.65;26.48;;;;;;;;;;5095651;28;20287;-68
2022/12/04 13:51:40;;;;;;;51.47;25.98;;;;;;;;;;5095757;28;20249;-67
2022/12/04 13:54:28;;;;;;;54.63;28.70;;;;;;;;;;5095531;28;20211;-68
2022/12/04 13:56:57;;;;;;;50.85;27.05;;;;;;;;;;5096455;28;20197;-67
2022/12/04 13:59:33;;;;;;;44.65;24.50;;;;;;;;;;5095637;28;20196;-69
2022/12/04 14:02:02;;;;;;;49.35;27.02;;;;;;;;;;5095741;28;20206;-68
2022/12/04 14:04:31;;;;;;;45.95;24.15;;;;;;;;;;5094861;28;20200;-67
2022/12/04 14:06:59;;;;;;;54.88;26.10;;;;;;;;;;5084545;28;20201;-68
2022/12/04 14:09:29;;;;;;;47.22;25.30;;;;;;;;;;5074619;28;20203;-68
2022/12/04 14:11:58;;;;;;;42.53;24.33;;;;;;;;;;5074583;28;20200;-68
2022/12/04 14:14:28;;;;;;;49.42;26.02;;;;;;;;;;5074983;28;20198;-68
2022/12/04 14:16:56;;;;;;;50.95;25.75;;;;;;;;;;5075051;28;20197;-67
2022/12/04 14:19:29;;;;;;;48.42;26.08;;;;;;;;;;5075088;28;20201;-67
2022/12/04 14:21:57;;;;;;;42.72;23.27;;;;;;;;;;5074768;28;20248;-67
2022/12/04 14:24:34;;;;;;;48.47;25.63;;;;;;;;;;5074300;28;20205;-66
2022/12/04 14:27:02;;;;;;;47.90;26.85;;;;;;;;;;5074151;28;20191;-70
2022/12/04 14:29:35;;;;;;;51.13;25.83;;;;;;;;;;5074266;28;20191;-69
2022/12/04 14:32:08;;;;;;;43.40;24.02;;;;;;;;;;5074417;28;20522;-66
2022/12/04 14:34:36;;;;;;;50.28;26.27;;;;;;;;;;5074384;28;20702;-67
2022/12/04 14:37:04;;;;;;;45.17;24.98;;;;;;;;;;5085557;28;20207;-66
2022/12/04 14:39:35;;;;;;;55.60;27.67;;;;;;;;;;5090336;28;20450;-65